Fantasy — H3GS — position and weather

sailwx.info

Track history (hours):
 
Tides and Currents Weather Stations Pressure Air Temp Water Temp Dewpoint Dewpoint Depression Visibility Wind Speed Wind Dir Waves Ship Positions

Fantasy

Operator: Carnival Cruise Lines

Last reported at 2019-Oct-18 23:00 UTC. Time now 2019-Oct-18 23:41 UTC.
Position N 27°00' W 089°12'.

Type: Ship. MMSI: 353486000.

Wind from 360 at 21 knots

Barometer 997.0 mb
Air temperature 28.0 ° C
Visibility: greater than 10.8 NM
Dewpoint 26.6 ° C
Water temperature 29.0 ° C

Date/timePositionNaut miles runAvg speedWind from/ knotsBaromVisibWave heightAir tempDewpointWater temp
2019-Oct-18 23:00N 27°00' W 089°12'156156.3 360 / 21997.010.8 28.026.629.0
2019-Oct-18 22:00N 26°42' W 086°18'17543.6 320 / 24996.010.8 28.026.629.0
2019-Oct-18 18:00N 25°36' W 089°18'2626.3 250 / 301003.0
2019-Oct-18 17:00N 25°12' W 089°06'1313.2 210 / 35999.2
2019-Oct-18 16:00N 25°00' W 089°00'1918.8 200 / 401000.0
2019-Oct-18 15:00N 24°42' W 088°54'7117.9 200 / 45999.6
2019-Oct-18 11:00N 23°36' W 088°24'15519.3 190 / 351004.010.8 29.029.029.0
2019-Oct-18 03:00N 21°54' W 086°18'7321.7 160 / 161008.110.8 29.026.230.2
2019-Oct-17 23:36N 20°46' W 086°48'221.8
2019-Oct-17 23:31N 20°45' W 086°49'1121.6
2019-Oct-17 23:01N 20°36' W 086°56'713.7
2019-Oct-17 22:31N 20°29' W 086°59'1 1.8
2019-Oct-17 22:01N 20°29' W 086°59'0 0.0
2019-Oct-17 21:30N 20°29' W 086°59'0 0.0
2019-Oct-17 21:00N 20°29' W 086°59'0 0.0
2019-Oct-17 20:30N 20°29' W 086°59'0 0.0
2019-Oct-17 20:01N 20°29' W 086°59'0 0.0
2019-Oct-17 19:30N 20°29' W 086°59'0 0.0
2019-Oct-17 19:00N 20°29' W 086°59'0 0.0
2019-Oct-17 18:30N 20°29' W 086°59'0 0.0
2019-Oct-17 18:01N 20°29' W 086°59'0 0.0
2019-Oct-17 17:30N 20°29' W 086°59'0 0.0
2019-Oct-17 17:01N 20°29' W 086°59'0 0.0
2019-Oct-17 16:31N 20°29' W 086°59'0 0.0
2019-Oct-17 16:00N 20°29' W 086°59'0 0.0
2019-Oct-17 15:28N 20°29' W 086°59'0 0.0
2019-Oct-17 15:00N 20°29' W 086°59'0 0.0
2019-Oct-17 14:31N 20°29' W 086°59'0 0.0
2019-Oct-17 14:00N 20°29' W 086°59'0 0.0
2019-Oct-17 13:31N 20°29' W 086°59'3 5.1
2019-Oct-17 13:01N 20°31' W 086°59'5 9.9
2019-Oct-17 12:31N 20°35' W 086°56'714.6
2019-Oct-17 12:00N 20°41' W 086°52'815.7
2019-Oct-17 11:30N 20°48' W 086°47'5 9.3
2019-Oct-17 11:00N 20°48' W 086°42'8313.8 150 / 151008.027.0 29.026.228.0
2019-Oct-17 05:00N 21°54' W 087°36'5917.1 150 / 201008.310.8 30.025.828.9
2019-Oct-17 01:33N 21°56' W 088°39'119.6
2019-Oct-17 01:30N 21°56' W 088°40'1018.2
2019-Oct-17 00:59N 21°55' W 088°50'918.3
2019-Oct-17 00:31N 21°54' W 088°60'918.2
2019-Oct-17 00:00N 21°52' W 089°09'918.2
2019-Oct-16 23:30N 21°47' W 089°18'918.7
2019-Oct-16 23:00N 21°41' W 089°25'918.6
2019-Oct-16 22:30N 21°36' W 089°34'917.7
2019-Oct-16 22:00N 21°30' W 089°41'613.0
2019-Oct-16 21:30N 21°24' W 089°41'3 6.4
2019-Oct-16 20:58N 21°21' W 089°41'0 0.0
2019-Oct-16 20:22N 21°21' W 089°41'0 0.0
2019-Oct-16 19:58N 21°21' W 089°41'0 0.0
2019-Oct-16 19:28N 21°21' W 089°41'0 0.0
2019-Oct-16 18:46N 21°21' W 089°41'0 0.0
2019-Oct-16 18:28N 21°21' W 089°41'0 0.0
2019-Oct-16 17:55N 21°21' W 089°41'0 0.0
2019-Oct-16 17:28N 21°21' W 089°41'0 0.0
2019-Oct-16 16:58N 21°21' W 089°41'0 0.0
2019-Oct-16 16:28N 21°21' W 089°41'0 0.0
2019-Oct-16 15:58N 21°21' W 089°41'0 0.0
2019-Oct-16 15:22N 21°21' W 089°41'0 0.0
2019-Oct-16 14:58N 21°21' W 089°41'0 0.0
2019-Oct-16 14:28N 21°21' W 089°41'0 0.0
2019-Oct-16 13:58N 21°21' W 089°41'0 0.0
2019-Oct-16 13:28N 21°21' W 089°41'0 0.0
2019-Oct-16 13:00N 21°21' W 089°41'0 0.1
2019-Oct-16 12:30N 21°21' W 089°41'2 4.0
2019-Oct-16 12:00N 21°22' W 089°41'611.7
2019-Oct-16 11:31N 21°28' W 089°42'612.6
2019-Oct-16 11:01N 21°34' W 089°43'714.4
2019-Oct-16 10:30N 21°41' W 089°46'714.1
2019-Oct-16 10:00N 21°47' W 089°50'1114.7
2019-Oct-16 09:18N 21°57' W 089°55'2816.5
2019-Oct-16 07:35N 22°22' W 090°08'5214.4
2019-Oct-16 04:00N 23°12' W 089°54'6416.0 110 / 211008.610.8 30.027.329.5
2019-Oct-16 00:00N 24°12' W 089°30'15915.9 120 / 171007.027.0 30.025.828.0
2019-Oct-15 14:00N 26°42' W 088°30'4522.5 180 / 91011.710.8 29.026.228.8
2019-Oct-15 12:00N 27°24' W 088°12'12615.7 170 / 111011.027.0 27.025.628.0
2019-Oct-15 04:00N 29°24' W 087°30'91 3.3 120 / 51013.710.8 27.022.628.3
2019-Oct-14 00:00N 27°54' W 087°12'18815.7 110 / 61011.027.0 28.022.129.0
2019-Oct-13 12:00N 24°48' W 086°42'21618.0 100 / 141010.027.0 28.025.229.0
2019-Oct-13 00:00N 21°12' W 086°30'51 9.4 050 / 121008.027.0 30.025.829.0
2019-Oct-12 18:34N 20°29' W 086°59'0 0.0
2019-Oct-12 18:25N 20°29' W 086°59'0 0.0
2019-Oct-12 17:58N 20°29' W 086°59'0 0.0
2019-Oct-12 17:28N 20°29' W 086°59'0 0.0
2019-Oct-12 16:58N 20°29' W 086°59'0 0.0
2019-Oct-12 16:25N 20°29' W 086°59'0 0.0
2019-Oct-12 15:58N 20°29' W 086°59'0 0.0
2019-Oct-12 15:28N 20°29' W 086°59'0 0.0
2019-Oct-12 14:58N 20°29' W 086°59'0 0.0
2019-Oct-12 14:28N 20°29' W 086°59'0 0.0
2019-Oct-12 13:58N 20°29' W 086°59'0 0.0
2019-Oct-12 13:28N 20°29' W 086°59'0 0.0
2019-Oct-12 12:58N 20°29' W 086°59'0 0.5
2019-Oct-12 12:31N 20°29' W 086°59'3 5.2
2019-Oct-12 12:01N 20°31' W 086°59'4 8.7
2019-Oct-12 11:30N 20°35' W 086°56'612.3
2019-Oct-12 11:01N 20°40' W 086°53'5283.0
2019-Oct-12 11:00N 20°42' W 086°48'4 8.1 080 / 121007.027.0 29.026.229.0
2019-Oct-12 10:30N 20°46' W 086°48'4412.6
2019-Oct-12 07:00N 21°24' W 086°24'11716.7 070 / 201016.010.8 28.025.225.0
2019-Oct-12 00:00N 23°12' W 087°12'7919.7 060 / 131009.027.0 29.027.629.0
2019-Oct-11 20:00N 24°30' W 087°24'13817.3 060 / 51009.010.8 28.025.225.0
2019-Oct-11 12:00N 26°48' W 087°24'13817.3 120 / 181010.027.0 28.023.729.0
2019-Oct-11 04:00N 29°06' W 087°24'12 0.5 110 / 321011.010.8 28.023.728.7
2019-Oct-10 04:00N 29°18' W 087°24'8514.2 130 / 221011.610.8 28.023.728.8
2019-Oct-09 22:00N 27°54' W 087°06'10420.8 080 / 301009.027.0 28.026.628.0
2019-Oct-09 17:00N 26°12' W 086°42'32618.5 050 / 71010.010.8 30.025.829.3
2019-Oct-08 23:25N 20°46' W 086°48'820.3
2019-Oct-08 23:00N 20°39' W 086°53'  
Track history (hours):
 
Tides and Currents Weather Stations Pressure Air Temp Water Temp Dewpoint Dewpoint Depression Visibility Wind Speed Wind Dir Waves Ship Positions

Fantasy

Operator: Carnival Cruise Lines

Last reported at 2019-Oct-18 23:00 UTC. Time now 2019-Oct-18 23:41 UTC.
Position N 27°00' W 089°12'.

Type: Ship. MMSI: 353486000.

Wind from 360 at 21 knots

Barometer 997.0 mb
Air temperature 28.0 ° C
Visibility: greater than 10.8 NM
Dewpoint 26.6 ° C
Water temperature 29.0 ° C

Date/timePositionNaut miles runAvg speedWind from/ knotsBaromVisibWave heightAir tempDewpointWater temp
2019-Oct-18 23:00N 27°00' W 089°12'156156.3 360 / 21997.010.8 28.026.629.0
2019-Oct-18 22:00N 26°42' W 086°18'17543.6 320 / 24996.010.8 28.026.629.0
2019-Oct-18 18:00N 25°36' W 089°18'2626.3 250 / 301003.0
2019-Oct-18 17:00N 25°12' W 089°06'1313.2 210 / 35999.2
2019-Oct-18 16:00N 25°00' W 089°00'1918.8 200 / 401000.0
2019-Oct-18 15:00N 24°42' W 088°54'7117.9 200 / 45999.6
2019-Oct-18 11:00N 23°36' W 088°24'15519.3 190 / 351004.010.8 29.029.029.0
2019-Oct-18 03:00N 21°54' W 086°18'7321.7 160 / 161008.110.8 29.026.230.2
2019-Oct-17 23:36N 20°46' W 086°48'221.8
2019-Oct-17 23:31N 20°45' W 086°49'1121.6
2019-Oct-17 23:01N 20°36' W 086°56'713.7
2019-Oct-17 22:31N 20°29' W 086°59'1 1.8
2019-Oct-17 22:01N 20°29' W 086°59'0 0.0
2019-Oct-17 21:30N 20°29' W 086°59'0 0.0
2019-Oct-17 21:00N 20°29' W 086°59'0 0.0
2019-Oct-17 20:30N 20°29' W 086°59'0 0.0
2019-Oct-17 20:01N 20°29' W 086°59'0 0.0
2019-Oct-17 19:30N 20°29' W 086°59'0 0.0
2019-Oct-17 19:00N 20°29' W 086°59'0 0.0
2019-Oct-17 18:30N 20°29' W 086°59'0 0.0
2019-Oct-17 18:01N 20°29' W 086°59'0 0.0
2019-Oct-17 17:30N 20°29' W 086°59'0 0.0
2019-Oct-17 17:01N 20°29' W 086°59'0 0.0
2019-Oct-17 16:31N 20°29' W 086°59'0 0.0
2019-Oct-17 16:00N 20°29' W 086°59'0 0.0
2019-Oct-17 15:28N 20°29' W 086°59'0 0.0
2019-Oct-17 15:00N 20°29' W 086°59'0 0.0
2019-Oct-17 14:31N 20°29' W 086°59'0 0.0
2019-Oct-17 14:00N 20°29' W 086°59'0 0.0
2019-Oct-17 13:31N 20°29' W 086°59'3 5.1
2019-Oct-17 13:01N 20°31' W 086°59'5 9.9
2019-Oct-17 12:31N 20°35' W 086°56'714.6
2019-Oct-17 12:00N 20°41' W 086°52'815.7
2019-Oct-17 11:30N 20°48' W 086°47'5 9.3
2019-Oct-17 11:00N 20°48' W 086°42'8313.8 150 / 151008.027.0 29.026.228.0
2019-Oct-17 05:00N 21°54' W 087°36'5917.1 150 / 201008.310.8 30.025.828.9
2019-Oct-17 01:33N 21°56' W 088°39'119.6
2019-Oct-17 01:30N 21°56' W 088°40'1018.2
2019-Oct-17 00:59N 21°55' W 088°50'918.3
2019-Oct-17 00:31N 21°54' W 088°60'918.2
2019-Oct-17 00:00N 21°52' W 089°09'918.2
2019-Oct-16 23:30N 21°47' W 089°18'918.7
2019-Oct-16 23:00N 21°41' W 089°25'918.6
2019-Oct-16 22:30N 21°36' W 089°34'917.7
2019-Oct-16 22:00N 21°30' W 089°41'613.0
2019-Oct-16 21:30N 21°24' W 089°41'3 6.4
2019-Oct-16 20:58N 21°21' W 089°41'0 0.0
2019-Oct-16 20:22N 21°21' W 089°41'0 0.0
2019-Oct-16 19:58N 21°21' W 089°41'0 0.0
2019-Oct-16 19:28N 21°21' W 089°41'0 0.0
2019-Oct-16 18:46N 21°21' W 089°41'0 0.0
2019-Oct-16 18:28N 21°21' W 089°41'0 0.0
2019-Oct-16 17:55N 21°21' W 089°41'0 0.0
2019-Oct-16 17:28N 21°21' W 089°41'0 0.0
2019-Oct-16 16:58N 21°21' W 089°41'0 0.0
2019-Oct-16 16:28N 21°21' W 089°41'0 0.0
2019-Oct-16 15:58N 21°21' W 089°41'0 0.0
2019-Oct-16 15:22N 21°21' W 089°41'0 0.0
2019-Oct-16 14:58N 21°21' W 089°41'0 0.0
2019-Oct-16 14:28N 21°21' W 089°41'0 0.0
2019-Oct-16 13:58N 21°21' W 089°41'0 0.0
2019-Oct-16 13:28N 21°21' W 089°41'0 0.0
2019-Oct-16 13:00N 21°21' W 089°41'0 0.1
2019-Oct-16 12:30N 21°21' W 089°41'2 4.0
2019-Oct-16 12:00N 21°22' W 089°41'611.7
2019-Oct-16 11:31N 21°28' W 089°42'612.6
2019-Oct-16 11:01N 21°34' W 089°43'714.4
2019-Oct-16 10:30N 21°41' W 089°46'714.1
2019-Oct-16 10:00N 21°47' W 089°50'1114.7
2019-Oct-16 09:18N 21°57' W 089°55'2816.5
2019-Oct-16 07:35N 22°22' W 090°08'5214.4
2019-Oct-16 04:00N 23°12' W 089°54'6416.0 110 / 211008.610.8 30.027.329.5
2019-Oct-16 00:00N 24°12' W 089°30'15915.9 120 / 171007.027.0 30.025.828.0
2019-Oct-15 14:00N 26°42' W 088°30'4522.5 180 / 91011.710.8 29.026.228.8
2019-Oct-15 12:00N 27°24' W 088°12'12615.7 170 / 111011.027.0 27.025.628.0
2019-Oct-15 04:00N 29°24' W 087°30'91 3.3 120 / 51013.710.8 27.022.628.3
2019-Oct-14 00:00N 27°54' W 087°12'18815.7 110 / 61011.027.0 28.022.129.0
2019-Oct-13 12:00N 24°48' W 086°42'21618.0 100 / 141010.027.0 28.025.229.0
2019-Oct-13 00:00N 21°12' W 086°30'51 9.4 050 / 121008.027.0 30.025.829.0
2019-Oct-12 18:34N 20°29' W 086°59'0 0.0
2019-Oct-12 18:25N 20°29' W 086°59'0 0.0
2019-Oct-12 17:58N 20°29' W 086°59'0 0.0
2019-Oct-12 17:28N 20°29' W 086°59'0 0.0
2019-Oct-12 16:58N 20°29' W 086°59'0 0.0
2019-Oct-12 16:25N 20°29' W 086°59'0 0.0
2019-Oct-12 15:58N 20°29' W 086°59'0 0.0
2019-Oct-12 15:28N 20°29' W 086°59'0 0.0
2019-Oct-12 14:58N 20°29' W 086°59'0 0.0
2019-Oct-12 14:28N 20°29' W 086°59'0 0.0
2019-Oct-12 13:58N 20°29' W 086°59'0 0.0
2019-Oct-12 13:28N 20°29' W 086°59'0 0.0
2019-Oct-12 12:58N 20°29' W 086°59'0 0.5
2019-Oct-12 12:31N 20°29' W 086°59'3 5.2
2019-Oct-12 12:01N 20°31' W 086°59'4 8.7
2019-Oct-12 11:30N 20°35' W 086°56'612.3
2019-Oct-12 11:01N 20°40' W 086°53'5283.0
2019-Oct-12 11:00N 20°42' W 086°48'4 8.1 080 / 121007.027.0 29.026.229.0
2019-Oct-12 10:30N 20°46' W 086°48'4412.6
2019-Oct-12 07:00N 21°24' W 086°24'11716.7 070 / 201016.010.8 28.025.225.0
2019-Oct-12 00:00N 23°12' W 087°12'7919.7 060 / 131009.027.0 29.027.629.0
2019-Oct-11 20:00N 24°30' W 087°24'13817.3 060 / 51009.010.8 28.025.225.0
2019-Oct-11 12:00N 26°48' W 087°24'13817.3 120 / 181010.027.0 28.023.729.0
2019-Oct-11 04:00N 29°06' W 087°24'12 0.5 110 / 321011.010.8 28.023.728.7
2019-Oct-10 04:00N 29°18' W 087°24'8514.2 130 / 221011.610.8 28.023.728.8
2019-Oct-09 22:00N 27°54' W 087°06'10420.8 080 / 301009.027.0 28.026.628.0
2019-Oct-09 17:00N 26°12' W 086°42'32618.5 050 / 71010.010.8 30.025.829.3
2019-Oct-08 23:25N 20°46' W 086°48'820.3
2019-Oct-08 23:00N 20°39' W 086°53'  

Dump ship's entire track history